Time;durP1;ratioP1;P1;durP2;ratioP2;P2;SDS_P1;SDS_P2;PMS_P1;PMS_P2;Temp;Humidity;BMP_temperature;BMP_pressure;BME280_temperature;BME280_humidity;BME280_pressure;Samples;Min_cycle;Max_cycle;Signal;HPM_P1;HPM_P2
2023/05/16 00:00:52;;;;;;;31.85;19.58;;;;;;;14.74;91.80;97205.72;10287038;28;20570;-53
2023/05/16 00:05:50;;;;;;;28.23;18.20;;;;;;;14.65;92.19;97205.09;10286022;28;20125;-53
2023/05/16 00:10:49;;;;;;;;;;;;;;;14.73;91.92;97209.25;10286971;28;20042;-53
2023/05/16 00:15:48;;;;;;;26.73;18.30;;;;;;;14.83;91.34;97196.81;10283421;28;19920;-53
2023/05/16 00:20:48;;;;;;;;;;;;;;;14.83;91.39;97197.66;10286208;28;20025;-53
2023/05/16 00:25:47;;;;;;;31.05;19.50;;;;;;;14.89;90.73;97193.16;10283808;28;20007;-54
2023/05/16 00:30:47;;;;;;;29.10;20.10;;;;;;;14.96;90.60;97189.47;10285576;28;20124;-53
2023/05/16 00:35:46;;;;;;;32.00;19.08;;;;;;;14.95;90.35;97187.78;10285253;28;20113;-53
2023/05/16 00:40:45;;;;;;;27.30;18.38;;;;;;;14.93;90.73;97189.56;10285142;28;20153;-53
2023/05/16 00:45:44;;;;;;;31.70;19.52;;;;;;;14.96;90.45;97177.25;10285338;28;20121;-52
2023/05/16 00:50:43;;;;;;;26.40;18.55;;;;;;;14.89;90.78;97178.31;10285183;28;20117;-53
2023/05/16 00:55:42;;;;;;;31.73;19.85;;;;;;;14.76;91.44;97185.66;10285082;28;20104;-53
2023/05/16 01:00:42;;;;;;;30.17;19.30;;;;;;;14.72;91.88;97186.63;10284203;28;20546;-53
2023/05/16 01:05:41;;;;;;;33.85;19.23;;;;;;;14.62;91.64;97153.81;10285280;28;20563;-53
2023/05/16 01:10:45;;;;;;;;;;;;;;;14.75;92.12;97178.69;10285415;28;20546;-53
2023/05/16 01:15:58;;;;;;;30.23;19.60;;;;;;;14.88;91.52;97168.78;10284421;28;19967;-52
2023/05/16 01:21:08;;;;;;;28.88;18.88;;;;;;;14.85;91.79;97165.41;10284013;28;20474;-52
2023/05/16 01:26:31;;;;;;;34.20;18.95;;;;;;;14.86;91.61;97156.69;10284019;28;20238;-53
2023/05/16 01:31:30;;;;;;;33.15;18.98;;;;;;;14.83;91.51;97149.78;10280411;28;20188;-52
2023/05/16 01:36:38;;;;;;;30.30;19.58;;;;;;;14.89;91.17;97146.97;10283300;28;20137;-53
2023/05/16 01:42:01;;;;;;;31.00;20.00;;;;;;;14.94;90.83;97154.69;10283043;28;20117;-52
2023/05/16 01:47:02;;;;;;;29.55;18.20;;;;;;;14.95;90.61;97156.41;10279638;28;20580;-53
2023/05/16 01:52:18;;;;;;;29.88;18.83;;;;;;;15.06;90.44;97145.66;10282711;28;20119;-53
2023/05/16 01:57:18;;;;;;;31.48;18.55;;;;;;;15.07;89.78;97140.38;10283037;28;20065;-53
2023/05/16 02:02:18;;;;;;;27.75;18.95;;;;;;;15.08;89.44;97136.84;10282624;28;20113;-53
2023/05/16 02:07:17;;;;;;;25.13;18.60;;;;;;;15.01;89.88;97128.38;10282651;28;20132;-53
2023/05/16 02:12:16;;;;;;;31.45;20.10;;;;;;;14.95;89.73;97130.28;10281984;28;20414;-52
2023/05/16 02:17:15;;;;;;;32.42;19.80;;;;;;;14.75;90.55;97129.06;10282127;28;20089;-53
2023/05/16 02:22:14;;;;;;;;;;;;;;;14.74;91.08;97127.38;10282064;28;20029;-53
2023/05/16 02:27:13;;;;;;;27.83;19.53;;;;;;;14.52;91.70;97085.31;10281769;28;19932;-53
2023/05/16 02:32:12;;;;;;;;;;;;;;;14.65;92.22;97101.47;10281929;28;20032;-53
2023/05/16 02:37:11;;;;;;;32.60;20.73;;;;;;;14.70;91.64;97120.53;10280957;28;20011;-53
2023/05/16 02:42:09;;;;;;;;;;;;;;;14.74;91.41;97119.53;10281247;28;20034;-52
2023/05/16 02:47:08;;;;;;;29.00;19.45;;;;;;;14.78;91.27;97110.72;10280371;28;19980;-53
2023/05/16 02:52:07;;;;;;;;;;;;;;;14.82;91.17;97108.88;10280509;28;20054;-53
2023/05/16 02:57:06;;;;;;;31.58;20.20;;;;;;;14.83;90.97;97119.28;10280741;28;20303;-53
2023/05/16 03:02:05;;;;;;;;;;;;;;;14.72;91.25;97123.94;10281154;28;20034;-52
2023/05/16 03:07:04;;;;;;;33.55;21.20;;;;;;;14.54;92.41;97124.41;10279855;28;19964;-53
2023/05/16 03:12:03;;;;;;;;;;;;;;;14.58;92.31;97133.88;10281789;28;20038;-53
2023/05/16 03:17:02;;;;;;;35.40;22.70;;;;;;;14.60;91.84;97130.34;10280243;28;19979;-53
2023/05/16 03:22:01;;;;;;;37.70;23.00;;;;;;;14.57;92.11;97126.97;10279985;28;20065;-53
2023/05/16 03:27:00;;;;;;;;;;;;;;;14.56;92.18;97131.31;10280044;28;20042;-53
2023/05/16 03:31:59;;;;;;;39.43;23.13;;;;;;;14.63;91.80;97140.69;10279160;28;20019;-53
2023/05/16 03:36:58;;;;;;;;;;;;;;;14.69;91.90;97128.38;10279670;28;20057;-53
2023/05/16 03:41:57;;;;;;;34.93;22.70;;;;;;;14.64;91.90;97118.06;10280299;28;20036;-53
2023/05/16 03:46:55;;;;;;;;;;;;;;;14.73;92.13;97128.28;10279485;28;20048;-53
2023/05/16 03:51:54;;;;;;;34.75;22.45;;;;;;;14.79;92.01;97135.94;10279117;28;19926;-53
2023/05/16 03:56:53;;;;;;;;;;;;;;;14.67;92.49;97141.47;10280072;28;20431;-53
2023/05/16 04:01:52;;;;;;;35.85;21.23;;;;;;;14.72;92.47;97129.19;10279186;28;19956;-53
2023/05/16 04:06:51;;;;;;;;;;;;;;;14.84;91.95;97141.03;10279539;28;20030;-53
2023/05/16 04:11:50;;;;;;;31.27;20.00;;;;;;;14.93;91.40;97137.31;10279524;28;19924;-52
2023/05/16 04:16:49;;;;;;;30.58;20.27;;;;;;;14.89;91.81;97146.13;10279800;28;20490;-53
2023/05/16 04:21:48;;;;;;;;;;;;;;;15.02;91.70;97139.66;10278513;28;20480;-53
2023/05/16 04:26:47;;;;;;;30.80;20.60;;;;;;;15.16;91.56;97134.91;10278410;28;20371;-53
2023/05/16 04:31:46;;;;;;;36.88;21.10;;;;;;;15.32;90.91;97150.09;10278246;28;20674;-53
2023/05/16 04:36:45;;;;;;;30.05;21.20;;;;;;;15.42;90.47;97157.66;10282644;28;20072;-53
2023/05/16 04:41:45;;;;;;;29.42;19.38;;;;;;;15.40;90.01;97129.84;10285681;28;20041;-53
2023/05/16 04:46:44;;;;;;;30.30;19.35;;;;;;;15.62;89.91;97130.91;10285479;28;20121;-53
2023/05/16 04:51:43;;;;;;;32.00;20.83;;;;;;;15.81;89.41;97159.97;10282003;28;20147;-53
2023/05/16 04:56:42;;;;;;;32.97;21.77;;;;;;;16.00;88.85;97162.03;10285323;28;20057;-53
2023/05/16 05:01:41;;;;;;;30.92;21.40;;;;;;;16.15;87.71;97171.13;10284950;28;20022;-53
2023/05/16 05:06:40;;;;;;;27.17;19.67;;;;;;;16.38;87.31;97165.97;10284859;28;20101;-53
2023/05/16 05:11:39;;;;;;;35.47;23.00;;;;;;;16.64;86.28;97182.56;10285912;28;20099;-53
2023/05/16 05:16:38;;;;;;;30.05;18.23;;;;;;;16.88;84.21;97179.13;10285203;28;20034;-54
2023/05/16 05:21:37;;;;;;;24.08;15.57;;;;;;;16.84;82.88;97190.63;10284483;28;20038;-53
2023/05/16 05:26:36;;;;;;;27.88;15.30;;;;;;;16.76;82.40;97144.63;10282871;28;20125;-55
2023/05/16 05:31:35;;;;;;;23.90;14.40;;;;;;;17.25;81.06;97196.16;10279076;28;20117;-53
2023/05/16 05:36:34;;;;;;;21.23;13.02;;;;;;;17.43;81.10;97193.78;10283973;28;20037;-53
2023/05/16 05:41:33;;;;;;;26.88;13.65;;;;;;;17.82;80.71;97195.78;10285320;28;20069;-53
2023/05/16 05:46:32;;;;;;;19.05;12.88;;;;;;;18.10;78.94;97193.78;10281784;28;20480;-53
2023/05/16 05:51:31;;;;;;;24.77;14.25;;;;;;;18.41;79.10;97210.94;10283088;28;20069;-53
2023/05/16 05:56:30;;;;;;;18.75;12.70;;;;;;;18.63;76.85;97210.03;10283012;28;20077;-54
2023/05/16 06:01:29;;;;;;;30.30;14.43;;;;;;;18.79;74.49;97211.13;10281058;28;20044;-53
2023/05/16 06:06:28;;;;;;;20.63;12.50;;;;;;;18.96;73.80;97215.66;10282611;28;20038;-55
2023/05/16 06:11:27;;;;;;;18.13;12.68;;;;;;;18.99;72.01;97224.28;10281866;28;20128;-54
2023/05/16 06:16:26;;;;;;;22.23;12.50;;;;;;;19.02;72.32;97236.44;10282080;28;20033;-53
2023/05/16 06:21:25;;;;;;;19.85;13.77;;;;;;;19.08;70.80;97198.50;10281834;28;20153;-54
2023/05/16 06:26:24;;;;;;;24.27;13.18;;;;;;;19.11;73.58;97217.63;10282270;28;20587;-53
2023/05/16 06:31:23;;;;;;;23.40;14.93;;;;;;;18.94;74.42;97157.88;10281059;28;20062;-54
2023/05/16 06:36:22;;;;;;;21.23;13.68;;;;;;;18.94;77.36;97192.06;10281041;28;20172;-54
2023/05/16 06:41:21;;;;;;;19.38;12.68;;;;;;;19.29;74.46;97158.06;10281183;28;20317;-53
2023/05/16 06:46:20;;;;;;;17.75;13.40;;;;;;;19.31;73.27;97185.16;10281192;28;20491;-54
2023/05/16 06:51:19;;;;;;;18.65;13.38;;;;;;;19.16;75.56;97151.69;10280459;28;20132;-54
2023/05/16 06:56:18;;;;;;;20.08;14.30;;;;;;;19.26;76.32;97168.75;10280627;28;20377;-54
2023/05/16 07:01:17;;;;;;;18.75;14.85;;;;;;;19.25;74.12;97161.75;10280165;28;20105;-55
2023/05/16 07:06:16;;;;;;;18.02;13.55;;;;;;;19.49;75.18;97164.22;10280168;28;20040;-53
2023/05/16 07:11:15;;;;;;;19.98;12.98;;;;;;;19.41;73.14;97152.25;10279727;28;20038;-54
2023/05/16 07:16:14;;;;;;;19.92;13.10;;;;;;;19.50;74.95;97160.66;10280824;28;20069;-54
2023/05/16 07:21:13;;;;;;;20.58;12.77;;;;;;;19.58;74.25;97166.44;10279517;28;20065;-54
2023/05/16 07:26:12;;;;;;;16.42;12.75;;;;;;;19.72;73.95;97185.09;10279700;28;20030;-54
2023/05/16 07:31:11;;;;;;;20.10;13.27;;;;;;;19.76;74.74;97160.31;10279492;28;20049;-54
2023/05/16 07:36:10;;;;;;;20.67;13.82;;;;;;;19.66;74.04;97124.81;10279340;28;20022;-54
2023/05/16 07:41:09;;;;;;;21.90;16.25;;;;;;;19.66;76.09;97154.63;10279003;28;20069;-54
2023/05/16 07:46:09;;;;;;;20.52;14.45;;;;;;;19.42;75.30;97126.81;10279531;28;20030;-54
2023/05/16 07:51:08;;;;;;;25.00;16.83;;;;;;;19.32;76.08;97134.28;10279068;28;20145;-53
2023/05/16 07:56:07;;;;;;;20.73;14.82;;;;;;;19.36;74.94;97121.81;10279001;28;20040;-55
2023/05/16 08:01:06;;;;;;;20.35;13.75;;;;;;;19.34;74.94;97142.06;10278601;28;20113;-54
2023/05/16 08:06:06;;;;;;;20.98;15.25;;;;;;;19.58;75.18;97127.81;10278257;28;20535;-54
2023/05/16 08:11:05;;;;;;;20.65;14.60;;;;;;;19.62;74.54;97134.63;10283561;28;20080;-55
2023/05/16 08:16:04;;;;;;;20.33;14.88;;;;;;;19.79;74.57;97140.88;10284905;28;20110;-54
2023/05/16 08:21:03;;;;;;;21.15;14.48;;;;;;;19.88;74.81;97143.06;10287102;28;20120;-54
2023/05/16 08:26:02;;;;;;;20.27;13.10;;;;;;;20.01;71.60;97133.66;10285131;28;20101;-54
2023/05/16 08:31:01;;;;;;;21.13;11.82;;;;;;;19.77;69.61;97132.22;10287202;28;20070;-54
2023/05/16 08:36:00;;;;;;;20.90;13.45;;;;;;;19.63;72.71;97130.25;10284977;28;20022;-55
2023/05/16 08:40:59;;;;;;;20.00;12.95;;;;;;;19.82;73.25;97131.06;10286285;28;20069;-54
2023/05/16 08:45:58;;;;;;;20.40;13.43;;;;;;;19.99;71.47;97146.03;10286100;28;20440;-55
2023/05/16 08:50:58;;;;;;;17.95;12.50;;;;;;;19.72;71.93;97071.03;10285259;28;20096;-54
2023/05/16 08:55:59;;;;;;;18.38;12.50;;;;;;;20.44;70.20;97131.53;10285008;28;20110;-54
2023/05/16 09:00:58;;;;;;;18.63;11.65;;;;;;;20.50;67.46;97139.13;10284703;28;20113;-54
2023/05/16 09:05:57;;;;;;;22.20;12.95;;;;;;;20.48;69.56;97134.88;10284693;28;20096;-54
2023/05/16 09:10:56;;;;;;;18.63;12.57;;;;;;;20.54;68.90;97110.84;10284508;28;20061;-54
2023/05/16 09:16:12;;;;;;;17.42;11.60;;;;;;;20.42;65.55;97136.06;10284455;28;20234;-54
2023/05/16 09:21:12;;;;;;;14.50;11.98;;;;;;;20.21;66.61;97095.81;10283119;28;20140;-55
2023/05/16 09:26:11;;;;;;;19.52;13.23;;;;;;;20.73;68.92;97141.53;10283315;28;20478;-54
2023/05/16 09:31:20;;;;;;;17.48;12.77;;;;;;;21.00;68.44;97121.63;10277745;28;20546;-55
2023/05/16 09:36:19;;;;;;;19.00;12.13;;;;;;;21.03;65.26;97113.56;10275481;28;20129;-54
2023/05/16 09:41:20;;;;;;;19.45;12.38;;;;;;;21.14;64.76;97119.09;10279105;28;20128;-55
2023/05/16 09:46:25;;;;;;;18.38;11.93;;;;;;;21.34;67.26;97098.75;10282074;28;20105;-54
2023/05/16 09:51:25;;;;;;;18.30;11.80;;;;;;;21.08;64.11;97023.63;10272144;28;20555;-54
2023/05/16 09:56:24;;;;;;;15.98;12.27;;;;;;;21.69;62.93;97086.22;10274849;28;20113;-55
2023/05/16 10:01:24;;;;;;;21.00;13.07;;;;;;;21.73;62.89;97100.94;10281426;28;20030;-54
2023/05/16 10:06:23;;;;;;;19.15;12.77;;;;;;;21.81;61.18;97095.22;10276289;28;20136;-55
2023/05/16 10:11:23;;;;;;;22.30;13.48;;;;;;;21.74;62.04;97059.53;10281411;28;20128;-54
2023/05/16 10:16:23;;;;;;;18.38;12.48;;;;;;;22.07;61.12;97114.06;10281557;28;20097;-54
2023/05/16 10:21:25;;;;;;;17.90;11.52;;;;;;;21.94;58.81;97114.72;10281906;28;20084;-55
2023/05/16 10:26:25;;;;;;;17.17;12.07;;;;;;;21.93;59.44;97112.16;10280853;28;20892;-54
2023/05/16 10:31:24;;;;;;;18.77;11.77;;;;;;;21.85;59.21;97107.34;10280590;28;20077;-54
2023/05/16 10:36:24;;;;;;;16.85;12.02;;;;;;;21.55;58.22;97044.75;10282328;28;20076;-55
2023/05/16 10:41:23;;;;;;;18.90;12.63;;;;;;;21.83;58.62;97093.34;10282611;28;20153;-54
2023/05/16 10:46:23;;;;;;;19.45;12.93;;;;;;;22.10;58.98;97104.13;10280845;28;20529;-55
2023/05/16 10:51:22;;;;;;;18.48;10.93;;;;;;;22.32;56.94;97079.97;10280272;28;20096;-55
2023/05/16 10:56:22;;;;;;;14.80;9.60;;;;;;;22.07;56.10;97069.13;10280907;28;20029;-55
2023/05/16 11:01:32;;;;;;;20.45;12.27;;;;;;;22.21;57.68;97079.75;10279701;28;20113;-54
2023/05/16 11:06:31;;;;;;;20.15;12.05;;;;;;;22.39;58.48;97056.66;10281413;28;20153;-55
2023/05/16 11:11:46;;;;;;;18.45;11.73;;;;;;;22.23;59.51;97032.94;10279200;28;20684;-55
2023/05/16 11:17:00;;;;;;;18.27;12.02;;;;;;;22.45;60.79;97056.28;10278229;28;20579;-55
2023/05/16 11:22:24;;;;;;;16.90;11.10;;;;;;;22.72;59.91;97053.78;10280903;28;20554;-54
2023/05/16 11:27:25;;;;;;;19.60;10.80;;;;;;;22.93;58.04;97050.78;10279284;28;20152;-54
2023/05/16 11:32:24;;;;;;;16.17;11.48;;;;;;;22.99;56.60;97047.72;10278878;28;20531;-55
2023/05/16 11:37:24;;;;;;;17.27;10.70;;;;;;;23.33;57.14;97035.03;10277411;28;20025;-55
2023/05/16 11:42:23;;;;;;;17.30;11.57;;;;;;;23.54;56.25;97035.47;10278286;28;20116;-55
2023/05/16 11:47:22;;;;;;;19.15;11.48;;;;;;;23.75;56.85;97049.13;10285627;28;20138;-54
2023/05/16 11:52:21;;;;;;;19.13;11.40;;;;;;;23.91;54.27;97038.34;10286762;28;20046;-55
2023/05/16 11:57:20;;;;;;;17.85;11.30;;;;;;;23.84;53.64;97035.25;10287810;28;20099;-55
2023/05/16 12:02:19;;;;;;;17.88;12.75;;;;;;;23.77;54.83;97023.34;10284919;28;20160;-55
2023/05/16 12:07:18;;;;;;;18.88;11.68;;;;;;;23.35;54.49;97030.47;10286470;28;20122;-54
2023/05/16 12:12:20;;;;;;;16.55;11.68;;;;;;;23.08;56.24;97025.16;10286825;28;20112;-54
2023/05/16 12:17:21;;;;;;;21.25;12.23;;;;;;;22.49;57.36;97009.38;10284528;28;20752;-54
2023/05/16 12:22:20;;;;;;;19.95;12.90;;;;;;;22.45;57.97;97034.28;10285190;28;20085;-55
2023/05/16 12:27:23;;;;;;;18.60;12.18;;;;;;;22.56;59.53;97035.34;10286249;28;20042;-54
2023/05/16 12:32:22;;;;;;;19.08;11.43;;;;;;;23.02;59.97;97040.47;10285338;28;20120;-54
2023/05/16 12:37:21;;;;;;;16.13;11.75;;;;;;;23.31;57.91;97023.69;10285701;28;20125;-55
2023/05/16 12:42:20;;;;;;;25.63;18.08;;;;;;;23.11;57.69;97022.31;10285459;28;20068;-54
2023/05/16 12:47:20;;;;;;;23.33;16.33;;;;;;;23.15;57.93;97008.78;10285555;28;20037;-55
2023/05/16 12:52:20;;;;;;;20.02;14.77;;;;;;;23.50;57.16;97003.03;10284168;28;20073;-54
2023/05/16 12:57:19;;;;;;;18.00;13.48;;;;;;;23.77;57.84;96999.50;10284671;28;20073;-55
2023/05/16 13:02:18;;;;;;;18.20;12.50;;;;;;;23.82;57.33;97008.03;10285089;28;20480;-55
2023/05/16 13:07:17;;;;;;;23.35;13.73;;;;;;;23.36;59.90;97005.72;10283930;28;20029;-55
2023/05/16 13:12:16;;;;;;;15.50;11.80;;;;;;;23.52;59.55;97016.19;10284440;28;20478;-54
2023/05/16 13:17:15;;;;;;;17.98;12.52;;;;;;;22.83;61.23;97023.19;10284234;28;20121;-54
2023/05/16 13:22:14;;;;;;;21.20;13.55;;;;;;;22.24;63.24;96955.34;10284397;28;20030;-54
2023/05/16 13:27:16;;;;;;;21.60;13.73;;;;;;;22.41;63.73;96990.47;10285610;28;20133;-55
2023/05/16 13:32:16;;;;;;;19.98;13.45;;;;;;;22.18;64.53;96968.94;10287224;28;20062;-55
2023/05/16 13:37:16;;;;;;;20.98;13.50;;;;;;;22.52;64.72;96993.31;10285631;28;20117;-55
2023/05/16 13:42:15;;;;;;;17.77;12.35;;;;;;;22.98;63.83;96979.91;10284909;28;20121;-55
2023/05/16 13:47:15;;;;;;;19.65;12.77;;;;;;;23.00;63.37;96988.59;10285948;28;20145;-55
2023/05/16 13:52:14;;;;;;;16.17;13.02;;;;;;;22.73;64.51;96968.16;10286601;28;20474;-55
2023/05/16 13:57:13;;;;;;;20.63;12.82;;;;;;;22.94;63.22;96967.81;10285825;28;20454;-54
2023/05/16 14:02:12;;;;;;;20.20;13.27;;;;;;;22.98;63.36;96969.31;10285199;28;20065;-54
2023/05/16 14:07:11;;;;;;;14.70;12.43;;;;;;;23.06;63.66;96967.00;10284088;28;20124;-54
2023/05/16 14:12:11;;;;;;;18.92;12.50;;;;;;;23.39;62.95;96969.28;10286122;28;20037;-55
2023/05/16 14:17:10;;;;;;;17.85;13.43;;;;;;;23.41;63.70;96985.91;10286317;28;20053;-55
2023/05/16 14:22:08;;;;;;;26.15;13.80;;;;;;;23.46;62.26;96980.31;10284972;28;20387;-55
2023/05/16 14:27:07;;;;;;;24.10;13.43;;;;;;;23.30;62.67;96985.75;10284802;28;20042;-55
2023/05/16 14:32:07;;;;;;;18.42;13.20;;;;;;;22.77;64.24;96976.81;10285433;28;20021;-55
2023/05/16 14:37:06;;;;;;;16.90;13.23;;;;;;;22.30;66.05;96977.91;10285118;28;20116;-54
2023/05/16 14:42:05;;;;;;;17.45;14.48;;;;;;;22.01;67.32;97003.44;10285658;28;20056;-55
2023/05/16 14:47:05;;;;;;;19.60;13.35;;;;;;;21.81;68.77;97004.59;10285174;28;20700;-55
2023/05/16 14:52:05;;;;;;;23.42;14.65;;;;;;;21.33;70.58;96965.06;10284307;28;20420;-55
2023/05/16 14:57:04;;;;;;;24.05;14.07;;;;;;;21.09;73.37;97015.59;10284207;28;20065;-54
2023/05/16 15:02:04;;;;;;;21.35;14.35;;;;;;;20.65;73.65;96952.94;10285353;28;20076;-55
2023/05/16 15:07:04;;;;;;;64.55;31.45;;;;;;;20.98;74.27;97036.44;10283605;28;20153;-55
2023/05/16 15:12:04;;;;;;;27.80;17.90;;;;;;;20.71;76.42;97036.16;10282104;28;20036;-54
2023/05/16 15:17:03;;;;;;;20.15;15.30;;;;;;;20.17;79.11;97033.66;10282556;28;20503;-55
2023/05/16 15:22:06;;;;;;;19.10;15.60;;;;;;;19.66;81.35;97056.38;10276562;28;20542;-55
2023/05/16 15:27:06;;;;;;;22.50;16.42;;;;;;;19.52;82.41;97053.53;10278634;28;20109;-54
2023/05/16 15:32:06;;;;;;;24.73;17.98;;;;;;;19.54;81.84;97051.69;10279551;28;20084;-54
2023/05/16 15:37:05;;;;;;;20.42;17.20;;;;;;;19.50;81.80;97044.88;10278992;28;20511;-55
2023/05/16 15:42:05;;;;;;;25.90;17.50;;;;;;;19.62;81.10;97060.09;10279985;28;20121;-54
2023/05/16 15:47:05;;;;;;;21.90;16.60;;;;;;;19.55;80.71;97061.28;10277633;28;20208;-54
2023/05/16 15:52:04;;;;;;;22.23;16.58;;;;;;;19.57;80.49;97057.69;10279272;28;20520;-54
2023/05/16 15:57:04;;;;;;;23.42;17.88;;;;;;;19.64;80.10;97047.72;10279020;28;20122;-54
2023/05/16 16:02:04;;;;;;;23.75;17.50;;;;;;;19.68;79.79;97048.44;10279007;28;20120;-54
2023/05/16 16:07:04;;;;;;;22.70;16.73;;;;;;;19.78;79.98;97045.25;10278453;28;20128;-54
2023/05/16 16:12:03;;;;;;;26.42;19.45;;;;;;;19.86;79.80;97037.84;10278778;28;20077;-54
2023/05/16 16:17:03;;;;;;;25.98;19.48;;;;;;;19.80;80.08;97027.59;10278718;28;20136;-54
2023/05/16 16:22:02;;;;;;;27.60;19.95;;;;;;;19.74;79.97;97022.63;10278012;28;20112;-53
2023/05/16 16:27:01;;;;;;;29.27;23.00;;;;;;;19.75;80.11;97021.72;10278072;28;20029;-54
2023/05/16 16:31:59;;;;;;;34.03;25.85;;;;;;;19.53;81.67;97028.91;10282912;28;20040;-54
2023/05/16 16:36:58;;;;;;;35.85;24.20;;;;;;;19.21;82.85;97034.81;10285823;28;20100;-54
2023/05/16 16:41:57;;;;;;;32.13;24.65;;;;;;;19.33;82.28;97028.09;10285013;28;20532;-53
2023/05/16 16:46:56;;;;;;;35.33;25.45;;;;;;;19.37;82.15;97034.94;10285523;28;20030;-54
2023/05/16 16:51:56;;;;;;;36.95;25.30;;;;;;;19.42;82.26;97042.59;10285545;28;20313;-53
2023/05/16 16:56:55;;;;;;;30.92;22.98;;;;;;;19.42;82.36;97039.97;10285017;28;20520;-53
2023/05/16 17:01:54;;;;;;;32.22;21.98;;;;;;;19.39;82.58;97040.97;10284862;28;20034;-54
2023/05/16 17:06:53;;;;;;;29.98;21.83;;;;;;;19.27;82.84;97044.16;10284772;28;20145;-54
2023/05/16 17:11:52;;;;;;;30.35;23.33;;;;;;;19.18;82.97;97045.47;10284443;28;20037;-54
2023/05/16 17:16:51;;;;;;;31.77;22.58;;;;;;;19.03;84.14;97051.44;10285150;28;20360;-53
2023/05/16 17:21:50;;;;;;;34.90;25.42;;;;;;;18.56;85.42;97017.63;10284156;28;20064;-53
2023/05/16 17:26:50;;;;;;;31.38;24.08;;;;;;;18.58;85.83;97042.91;10283875;28;20121;-53
2023/05/16 17:31:49;;;;;;;34.35;26.40;;;;;;;18.45;86.75;97043.53;10283913;28;20068;-53
2023/05/16 17:36:48;;;;;;;32.17;22.88;;;;;;;18.45;86.46;97043.53;10283236;28;20036;-54
2023/05/16 17:41:47;;;;;;;30.67;24.40;;;;;;;18.35;86.71;97032.56;10280996;28;20337;-53
2023/05/16 17:46:46;;;;;;;33.50;27.10;;;;;;;18.27;87.75;97032.03;10282045;28;20046;-53
2023/05/16 17:51:45;;;;;;;31.20;25.17;;;;;;;18.14;88.53;97027.31;10282276;28;20504;-54
2023/05/16 17:56:45;;;;;;;36.08;26.30;;;;;;;18.06;88.73;97021.56;10282865;28;20067;-53
2023/05/16 18:01:45;;;;;;;46.50;36.45;;;;;;;18.03;89.38;97028.69;10281834;28;20113;-53
2023/05/16 18:06:44;;;;;;;37.65;28.27;;;;;;;17.72;90.28;97022.94;10283444;28;20129;-53
2023/05/16 18:11:43;;;;;;;38.38;26.95;;;;;;;17.61;90.56;97014.63;10282280;28;20132;-53
2023/05/16 18:16:43;;;;;;;45.38;31.35;;;;;;;17.56;91.57;97000.84;10280483;28;20607;-53
2023/05/16 18:21:43;;;;;;;38.58;29.52;;;;;;;17.47;92.36;97006.47;10281775;28;20065;-53
2023/05/16 18:26:43;;;;;;;33.08;26.45;;;;;;;17.47;92.42;97020.47;10278790;28;20109;-53
2023/05/16 18:31:42;;;;;;;38.28;27.77;;;;;;;17.58;92.19;97021.78;10280716;28;20555;-53
2023/05/16 18:36:41;;;;;;;37.05;26.77;;;;;;;17.58;91.80;96978.03;10281482;28;20473;-54
2023/05/16 18:41:40;;;;;;;34.83;26.45;;;;;;;17.54;92.62;96997.44;10280358;28;20046;-54
2023/05/16 18:46:39;;;;;;;38.65;26.20;;;;;;;17.47;92.98;97009.09;10280945;28;20131;-54
2023/05/16 18:51:38;;;;;;;34.42;26.13;;;;;;;17.25;92.76;96970.63;10280601;28;20129;-53
2023/05/16 18:56:37;;;;;;;34.97;26.77;;;;;;;17.46;93.76;96982.03;10279294;28;20104;-53
2023/05/16 19:01:36;;;;;;;41.15;31.60;;;;;;;17.48;94.01;96976.72;10280030;28;20073;-53
2023/05/16 19:06:36;;;;;;;41.97;32.50;;;;;;;17.39;94.65;96967.47;10279505;28;20030;-53
2023/05/16 19:11:35;;;;;;;43.75;35.22;;;;;;;17.33;94.78;96984.31;10279512;28;20136;-53
2023/05/16 19:16:34;;;;;;;45.03;34.17;;;;;;;17.33;94.30;96968.56;10279242;28;20128;-53
2023/05/16 19:21:33;;;;;;;35.25;26.80;;;;;;;17.34;93.10;96949.28;10277890;28;20048;-52
2023/05/16 19:26:32;;;;;;;31.55;24.73;;;;;;;17.38;92.35;96944.78;10277218;28;20419;-53
2023/05/16 19:31:31;;;;;;;31.70;24.23;;;;;;;17.37;91.61;96931.72;10277113;28;20036;-53
2023/05/16 19:36:30;;;;;;;36.45;26.85;;;;;;;16.92;91.59;96896.84;10279137;28;20036;-53
2023/05/16 19:41:29;;;;;;;38.22;29.33;;;;;;;17.01;93.04;96961.16;10278728;28;20128;-53
2023/05/16 19:46:28;;;;;;;39.10;30.80;;;;;;;17.05;92.99;96954.84;10278936;28;20113;-54
2023/05/16 19:51:27;;;;;;;38.30;28.05;;;;;;;16.81;93.81;96935.72;10278492;28;20042;-53
2023/05/16 19:56:26;;;;;;;36.25;27.10;;;;;;;16.88;94.10;96956.38;10279072;28;20405;-53
2023/05/16 20:01:25;;;;;;;34.88;25.45;;;;;;;16.73;94.77;96954.31;10277847;28;20044;-53
2023/05/16 20:06:24;;;;;;;30.20;23.92;;;;;;;16.50;95.69;96950.78;10282638;28;20057;-53
2023/05/16 20:11:23;;;;;;;25.67;21.58;;;;;;;16.38;95.46;96939.94;10285579;28;20061;-53
2023/05/16 20:16:22;;;;;;;30.95;22.75;;;;;;;16.35;95.51;96956.63;10285127;28;20036;-54
2023/05/16 20:21:21;;;;;;;29.45;22.80;;;;;;;16.34;95.23;96941.81;10285071;28;20141;-53
2023/05/16 20:26:21;;;;;;;25.50;21.38;;;;;;;16.36;94.72;96924.28;10286448;28;20053;-53
2023/05/16 20:31:20;;;;;;;33.35;23.50;;;;;;;16.35;94.45;96911.22;10285937;28;20133;-54
2023/05/16 20:36:19;;;;;;;29.55;22.33;;;;;;;16.44;94.21;96937.06;10286783;28;20044;-53
2023/05/16 20:41:18;;;;;;;31.70;24.15;;;;;;;16.54;93.73;96941.06;10285102;28;20642;-53
2023/05/16 20:46:17;;;;;;;29.27;22.40;;;;;;;16.58;93.38;96958.34;10285480;28;20057;-53
2023/05/16 20:51:16;;;;;;;30.67;22.25;;;;;;;16.56;93.39;96970.69;10283567;28;20144;-53
2023/05/16 20:56:15;;;;;;;28.42;22.23;;;;;;;16.56;93.62;96991.63;10284948;28;20026;-53
2023/05/16 21:01:14;;;;;;;32.95;23.02;;;;;;;16.62;93.13;96986.16;10284085;28;20641;-53
2023/05/16 21:06:13;;;;;;;29.30;21.98;;;;;;;16.39;92.98;96947.72;10283926;28;20459;-53
2023/05/16 21:11:12;;;;;;;20.52;10.40;;;;;;;16.66;91.89;96979.03;10284154;28;20037;-53
2023/05/16 21:16:11;;;;;;;25.13;9.63;;;;;;;16.65;89.14;96972.97;10283832;28;20508;-54
2023/05/16 21:21:10;;;;;;;21.58;8.65;;;;;;;16.45;87.41;96973.69;10283599;28;20061;-54
2023/05/16 21:26:09;;;;;;;16.45;7.32;;;;;;;16.42;85.50;96945.00;10284034;28;20037;-54
2023/05/16 21:31:08;;;;;;;14.63;6.88;;;;;;;16.16;84.26;96890.13;10282974;28;20116;-53
2023/05/16 21:36:07;;;;;;;13.80;7.68;;;;;;;16.37;83.90;96928.63;10283782;28;20033;-53
2023/05/16 21:41:06;;;;;;;17.08;7.00;;;;;;;16.34;82.75;96930.50;10283778;28;20088;-54
2023/05/16 21:46:05;;;;;;;17.27;6.45;;;;;;;16.52;81.67;96933.25;10283097;28;20136;-53
2023/05/16 21:51:04;;;;;;;18.92;6.22;;;;;;;16.58;80.26;96929.53;10282804;28;20644;-54
2023/05/16 21:56:04;;;;;;;12.40;5.95;;;;;;;16.58;78.18;96926.09;10284388;28;20209;-54
2023/05/16 22:01:04;;;;;;;12.02;5.65;;;;;;;16.69;76.46;96937.00;10282140;28;20112;-53
2023/05/16 22:06:03;;;;;;;13.07;5.13;;;;;;;16.87;73.56;96932.84;10282061;28;20080;-53
2023/05/16 22:11:02;;;;;;;15.68;5.15;;;;;;;17.01;72.61;96937.56;10282602;28;20474;-54
2023/05/16 22:16:02;;;;;;;14.48;5.60;;;;;;;17.08;72.03;96960.84;10279470;28;20132;-53
2023/05/16 22:21:01;;;;;;;14.55;5.45;;;;;;;17.06;70.87;96975.75;10276566;28;20381;-54
2023/05/16 22:25:59;;;;;;;13.10;5.88;;;;;;;17.17;70.12;96982.34;10277746;28;20034;-53
2023/05/16 22:30:58;;;;;;;11.95;5.57;;;;;;;17.21;69.50;96976.06;10280239;28;20038;-53
2023/05/16 22:35:57;;;;;;;11.00;4.68;;;;;;;17.25;68.51;96954.91;10281773;28;20029;-54
2023/05/16 22:40:57;;;;;;;13.27;4.85;;;;;;;17.27;67.78;96947.84;10281362;28;20040;-53
2023/05/16 22:45:56;;;;;;;18.77;5.80;;;;;;;17.32;67.81;96938.00;10280993;28;20085;-53
2023/05/16 22:50:55;;;;;;;18.35;7.28;;;;;;;17.24;69.29;96961.06;10281098;28;20177;-53